sensor_id;sensor_type;location;lat;lon;timestamp;temperature;humidity
13389;DHT22;6764;53.250;10.410;2023-12-28T00:00:38;8.50;99.90
13389;DHT22;6764;53.250;10.410;2023-12-28T00:03:04;8.60;99.90
13389;DHT22;6764;53.250;10.410;2023-12-28T00:05:29;8.70;99.90
13389;DHT22;6764;53.250;10.410;2023-12-28T00:07:55;8.70;99.90
13389;DHT22;6764;53.250;10.410;2023-12-28T00:10:27;8.80;99.90
13389;DHT22;6764;53.250;10.410;2023-12-28T00:12:54;8.90;99.90
13389;DHT22;6764;53.250;10.410;2023-12-28T00:15:19;8.90;99.90
13389;DHT22;6764;53.250;10.410;2023-12-28T00:17:45;8.90;99.90
13389;DHT22;6764;53.250;10.410;2023-12-28T00:20:11;8.90;99.90
13389;DHT22;6764;53.250;10.410;2023-12-28T00:22:40;8.90;99.90
13389;DHT22;6764;53.250;10.410;2023-12-28T00:25:06;9.00;99.90
13389;DHT22;6764;53.250;10.410;2023-12-28T00:27:31;8.90;99.90
13389;DHT22;6764;53.250;10.410;2023-12-28T00:29:59;9.00;99.90
13389;DHT22;6764;53.250;10.410;2023-12-28T00:32:25;9.00;99.90
13389;DHT22;6764;53.250;10.410;2023-12-28T00:34:51;9.10;99.90
13389;DHT22;6764;53.250;10.410;2023-12-28T00:37:16;9.10;99.90
13389;DHT22;6764;53.250;10.410;2023-12-28T00:39:42;9.10;99.90
13389;DHT22;6764;53.250;10.410;2023-12-28T00:42:07;9.10;99.90
13389;DHT22;6764;53.250;10.410;2023-12-28T00:44:33;9.20;99.90
13389;DHT22;6764;53.250;10.410;2023-12-28T00:46:58;9.20;99.90
13389;DHT22;6764;53.250;10.410;2023-12-28T00:49:24;9.20;99.90
13389;DHT22;6764;53.250;10.410;2023-12-28T00:51:50;9.10;99.90
13389;DHT22;6764;53.250;10.410;2023-12-28T00:54:15;9.10;99.90
13389;DHT22;6764;53.250;10.410;2023-12-28T00:56:41;9.20;99.90
13389;DHT22;6764;53.250;10.410;2023-12-28T00:59:06;9.20;99.90
13389;DHT22;6764;53.250;10.410;2023-12-28T01:01:32;9.20;99.90
13389;DHT22;6764;53.250;10.410;2023-12-28T01:03:57;9.20;99.90
13389;DHT22;6764;53.250;10.410;2023-12-28T01:06:23;9.20;99.90
13389;DHT22;6764;53.250;10.410;2023-12-28T01:08:54;9.10;99.90
13389;DHT22;6764;53.250;10.410;2023-12-28T01:11:20;9.00;99.90
13389;DHT22;6764;53.250;10.410;2023-12-28T01:13:45;8.90;99.90
13389;DHT22;6764;53.250;10.410;2023-12-28T01:16:14;8.90;99.90
13389;DHT22;6764;53.250;10.410;2023-12-28T01:18:40;8.90;99.90
13389;DHT22;6764;53.250;10.410;2023-12-28T01:21:06;8.80;99.90
13389;DHT22;6764;53.250;10.410;2023-12-28T01:23:32;8.70;99.90
13389;DHT22;6764;53.250;10.410;2023-12-28T01:25:58;8.70;99.90
13389;DHT22;6764;53.250;10.410;2023-12-28T01:28:24;8.60;99.90
13389;DHT22;6764;53.250;10.410;2023-12-28T01:30:50;8.60;99.90
13389;DHT22;6764;53.250;10.410;2023-12-28T01:33:15;8.60;99.90
13389;DHT22;6764;53.250;10.410;2023-12-28T01:35:41;8.60;99.90
13389;DHT22;6764;53.250;10.410;2023-12-28T01:38:07;8.50;99.90
13389;DHT22;6764;53.250;10.410;2023-12-28T01:40:33;8.50;99.90
13389;DHT22;6764;53.250;10.410;2023-12-28T01:42:58;8.50;99.90
13389;DHT22;6764;53.250;10.410;2023-12-28T01:45:24;8.60;99.90
13389;DHT22;6764;53.250;10.410;2023-12-28T01:47:50;8.50;99.90
13389;DHT22;6764;53.250;10.410;2023-12-28T01:50:18;8.50;99.90
13389;DHT22;6764;53.250;10.410;2023-12-28T01:52:44;8.60;99.90
13389;DHT22;6764;53.250;10.410;2023-12-28T01:55:10;8.60;99.90
13389;DHT22;6764;53.250;10.410;2023-12-28T01:57:36;8.60;99.90
13389;DHT22;6764;53.250;10.410;2023-12-28T02:00:03;8.60;99.90
13389;DHT22;6764;53.250;10.410;2023-12-28T02:02:30;8.60;99.90
13389;DHT22;6764;53.250;10.410;2023-12-28T02:04:56;8.60;99.90
13389;DHT22;6764;53.250;10.410;2023-12-28T02:07:23;8.60;99.90
13389;DHT22;6764;53.250;10.410;2023-12-28T02:09:49;8.60;99.90
13389;DHT22;6764;53.250;10.410;2023-12-28T02:12:15;8.60;99.90
13389;DHT22;6764;53.250;10.410;2023-12-28T02:14:41;8.60;99.90
13389;DHT22;6764;53.250;10.410;2023-12-28T02:17:12;8.70;99.90
13389;DHT22;6764;53.250;10.410;2023-12-28T02:19:49;8.70;99.90
13389;DHT22;6764;53.250;10.410;2023-12-28T02:22:15;8.70;99.90
13389;DHT22;6764;53.250;10.410;2023-12-28T02:25:11;8.70;99.90
13389;DHT22;6764;53.250;10.410;2023-12-28T02:27:44;8.80;99.90
13389;DHT22;6764;53.250;10.410;2023-12-28T02:30:12;8.90;99.90
13389;DHT22;6764;53.250;10.410;2023-12-28T02:32:50;8.90;99.90
13389;DHT22;6764;53.250;10.410;2023-12-28T02:37:48;8.90;99.90
13389;DHT22;6764;53.250;10.410;2023-12-28T02:40:16;8.90;99.90
13389;DHT22;6764;53.250;10.410;2023-12-28T02:42:42;9.00;99.90
13389;DHT22;6764;53.250;10.410;2023-12-28T02:45:08;9.00;99.90
13389;DHT22;6764;53.250;10.410;2023-12-28T02:47:34;9.00;99.90
13389;DHT22;6764;53.250;10.410;2023-12-28T02:50:00;9.00;99.90
13389;DHT22;6764;53.250;10.410;2023-12-28T02:52:25;9.10;99.90
13389;DHT22;6764;53.250;10.410;2023-12-28T02:54:51;9.10;99.90
13389;DHT22;6764;53.250;10.410;2023-12-28T02:57:16;9.10;99.90
13389;DHT22;6764;53.250;10.410;2023-12-28T02:59:46;9.10;99.90
13389;DHT22;6764;53.250;10.410;2023-12-28T03:02:12;9.10;99.90
13389;DHT22;6764;53.250;10.410;2023-12-28T03:04:38;9.10;99.90
13389;DHT22;6764;53.250;10.410;2023-12-28T03:07:04;9.10;99.90
13389;DHT22;6764;53.250;10.410;2023-12-28T03:09:30;9.10;99.90
13389;DHT22;6764;53.250;10.410;2023-12-28T03:11:56;9.10;99.90
13389;DHT22;6764;53.250;10.410;2023-12-28T03:14:21;9.10;99.90
13389;DHT22;6764;53.250;10.410;2023-12-28T03:16:47;9.10;99.90
13389;DHT22;6764;53.250;10.410;2023-12-28T03:19:13;9.10;99.90
13389;DHT22;6764;53.250;10.410;2023-12-28T03:21:41;9.00;99.90
13389;DHT22;6764;53.250;10.410;2023-12-28T03:24:07;9.10;99.90
13389;DHT22;6764;53.250;10.410;2023-12-28T03:26:37;9.10;99.90
13389;DHT22;6764;53.250;10.410;2023-12-28T03:29:03;9.10;99.90
13389;DHT22;6764;53.250;10.410;2023-12-28T03:31:28;9.10;99.90
13389;DHT22;6764;53.250;10.410;2023-12-28T03:33:54;9.10;99.90
13389;DHT22;6764;53.250;10.410;2023-12-28T03:36:20;9.10;99.90
13389;DHT22;6764;53.250;10.410;2023-12-28T03:38:46;9.10;99.90
13389;DHT22;6764;53.250;10.410;2023-12-28T03:41:18;9.20;99.90
13389;DHT22;6764;53.250;10.410;2023-12-28T03:43:44;9.20;99.90
13389;DHT22;6764;53.250;10.410;2023-12-28T03:46:11;9.20;99.90
13389;DHT22;6764;53.250;10.410;2023-12-28T03:48:37;9.20;99.90
13389;DHT22;6764;53.250;10.410;2023-12-28T03:51:03;9.10;99.90
13389;DHT22;6764;53.250;10.410;2023-12-28T03:53:29;9.20;99.90
13389;DHT22;6764;53.250;10.410;2023-12-28T03:55:57;9.20;99.90
13389;DHT22;6764;53.250;10.410;2023-12-28T03:58:23;9.20;99.90
13389;DHT22;6764;53.250;10.410;2023-12-28T04:00:49;9.20;99.90
13389;DHT22;6764;53.250;10.410;2023-12-28T04:03:14;9.20;99.90
13389;DHT22;6764;53.250;10.410;2023-12-28T04:05:40;9.20;99.90
13389;DHT22;6764;53.250;10.410;2023-12-28T04:08:06;9.20;99.90
13389;DHT22;6764;53.250;10.410;2023-12-28T04:10:33;9.20;99.90
13389;DHT22;6764;53.250;10.410;2023-12-28T04:12:59;9.20;99.90
13389;DHT22;6764;53.250;10.410;2023-12-28T04:15:29;9.20;99.90
13389;DHT22;6764;53.250;10.410;2023-12-28T04:17:55;9.20;99.90
13389;DHT22;6764;53.250;10.410;2023-12-28T04:20:21;9.10;99.90
13389;DHT22;6764;53.250;10.410;2023-12-28T04:22:46;9.10;99.90
13389;DHT22;6764;53.250;10.410;2023-12-28T04:25:12;9.10;99.90
13389;DHT22;6764;53.250;10.410;2023-12-28T04:27:39;9.20;99.90
13389;DHT22;6764;53.250;10.410;2023-12-28T04:30:05;9.20;99.90
13389;DHT22;6764;53.250;10.410;2023-12-28T04:32:34;9.20;99.90
13389;DHT22;6764;53.250;10.410;2023-12-28T04:35:00;9.10;99.90
13389;DHT22;6764;53.250;10.410;2023-12-28T04:37:25;9.10;99.90
13389;DHT22;6764;53.250;10.410;2023-12-28T04:39:54;9.10;99.90
13389;DHT22;6764;53.250;10.410;2023-12-28T04:42:19;9.10;99.90
13389;DHT22;6764;53.250;10.410;2023-12-28T04:44:45;9.10;99.90
13389;DHT22;6764;53.250;10.410;2023-12-28T04:47:11;9.10;99.90
13389;DHT22;6764;53.250;10.410;2023-12-28T04:49:36;9.10;99.90
13389;DHT22;6764;53.250;10.410;2023-12-28T04:52:02;9.10;99.90
13389;DHT22;6764;53.250;10.410;2023-12-28T04:54:28;9.10;99.90
13389;DHT22;6764;53.250;10.410;2023-12-28T04:56:53;9.10;99.90
13389;DHT22;6764;53.250;10.410;2023-12-28T04:59:19;9.10;99.90
13389;DHT22;6764;53.250;10.410;2023-12-28T05:01:45;9.10;99.90
13389;DHT22;6764;53.250;10.410;2023-12-28T05:04:11;9.10;99.90
13389;DHT22;6764;53.250;10.410;2023-12-28T05:06:37;9.10;99.90
13389;DHT22;6764;53.250;10.410;2023-12-28T05:09:03;9.10;99.90
13389;DHT22;6764;53.250;10.410;2023-12-28T05:11:29;9.10;99.90
13389;DHT22;6764;53.250;10.410;2023-12-28T05:13:55;9.10;99.90
13389;DHT22;6764;53.250;10.410;2023-12-28T05:16:21;9.10;99.90
13389;DHT22;6764;53.250;10.410;2023-12-28T05:18:46;9.10;99.90
13389;DHT22;6764;53.250;10.410;2023-12-28T05:21:12;9.10;99.90
13389;DHT22;6764;53.250;10.410;2023-12-28T05:23:38;9.20;99.90
13389;DHT22;6764;53.250;10.410;2023-12-28T05:26:04;9.20;99.90
13389;DHT22;6764;53.250;10.410;2023-12-28T05:28:30;9.20;99.90
13389;DHT22;6764;53.250;10.410;2023-12-28T05:30:55;9.20;99.90
13389;DHT22;6764;53.250;10.410;2023-12-28T05:33:21;9.20;99.90
13389;DHT22;6764;53.250;10.410;2023-12-28T05:35:48;9.20;99.90
13389;DHT22;6764;53.250;10.410;2023-12-28T05:38:13;9.20;99.90
13389;DHT22;6764;53.250;10.410;2023-12-28T05:40:39;9.20;99.90
13389;DHT22;6764;53.250;10.410;2023-12-28T05:43:05;9.20;99.90
13389;DHT22;6764;53.250;10.410;2023-12-28T05:45:34;9.20;99.90
13389;DHT22;6764;53.250;10.410;2023-12-28T05:47:59;9.30;99.90
13389;DHT22;6764;53.250;10.410;2023-12-28T05:50:25;9.40;99.90
13389;DHT22;6764;53.250;10.410;2023-12-28T05:52:50;9.40;99.90
13389;DHT22;6764;53.250;10.410;2023-12-28T05:55:16;9.30;99.90
13389;DHT22;6764;53.250;10.410;2023-12-28T05:57:44;9.30;99.90
13389;DHT22;6764;53.250;10.410;2023-12-28T06:00:10;9.40;99.90
13389;DHT22;6764;53.250;10.410;2023-12-28T06:02:36;9.40;99.90
13389;DHT22;6764;53.250;10.410;2023-12-28T06:05:02;9.40;99.90
13389;DHT22;6764;53.250;10.410;2023-12-28T06:07:27;9.40;99.90
13389;DHT22;6764;53.250;10.410;2023-12-28T06:09:53;9.40;99.90
13389;DHT22;6764;53.250;10.410;2023-12-28T06:12:18;9.40;99.90
13389;DHT22;6764;53.250;10.410;2023-12-28T06:14:44;9.40;99.90
13389;DHT22;6764;53.250;10.410;2023-12-28T06:17:10;9.40;99.90
13389;DHT22;6764;53.250;10.410;2023-12-28T06:19:35;9.40;99.90
13389;DHT22;6764;53.250;10.410;2023-12-28T06:22:01;9.40;99.90
13389;DHT22;6764;53.250;10.410;2023-12-28T06:24:26;9.40;99.90
13389;DHT22;6764;53.250;10.410;2023-12-28T06:26:52;9.40;99.90
13389;DHT22;6764;53.250;10.410;2023-12-28T06:29:18;9.50;99.90
13389;DHT22;6764;53.250;10.410;2023-12-28T06:31:43;9.50;99.90
13389;DHT22;6764;53.250;10.410;2023-12-28T06:34:09;9.40;99.90
13389;DHT22;6764;53.250;10.410;2023-12-28T06:36:34;9.50;99.90
13389;DHT22;6764;53.250;10.410;2023-12-28T06:39:00;9.50;99.90
13389;DHT22;6764;53.250;10.410;2023-12-28T06:41:26;9.50;99.90
13389;DHT22;6764;53.250;10.410;2023-12-28T06:43:52;9.50;99.90
13389;DHT22;6764;53.250;10.410;2023-12-28T06:46:18;9.60;99.90
13389;DHT22;6764;53.250;10.410;2023-12-28T06:48:44;9.50;99.90
13389;DHT22;6764;53.250;10.410;2023-12-28T06:51:16;9.60;99.90
13389;DHT22;6764;53.250;10.410;2023-12-28T06:53:42;9.60;99.90
13389;DHT22;6764;53.250;10.410;2023-12-28T06:56:09;9.60;99.90
13389;DHT22;6764;53.250;10.410;2023-12-28T06:58:34;9.60;99.90
13389;DHT22;6764;53.250;10.410;2023-12-28T07:01:05;9.60;99.90
13389;DHT22;6764;53.250;10.410;2023-12-28T07:03:32;9.70;99.90
13389;DHT22;6764;53.250;10.410;2023-12-28T07:05:58;9.70;99.90
13389;DHT22;6764;53.250;10.410;2023-12-28T07:08:24;9.60;99.90
13389;DHT22;6764;53.250;10.410;2023-12-28T07:10:50;9.70;99.90
13389;DHT22;6764;53.250;10.410;2023-12-28T07:13:16;9.60;99.90
13389;DHT22;6764;53.250;10.410;2023-12-28T07:15:42;9.60;99.90
13389;DHT22;6764;53.250;10.410;2023-12-28T07:18:07;9.70;99.90
13389;DHT22;6764;53.250;10.410;2023-12-28T07:20:33;9.70;99.90
13389;DHT22;6764;53.250;10.410;2023-12-28T07:22:58;9.80;99.90
13389;DHT22;6764;53.250;10.410;2023-12-28T07:25:24;9.80;99.90
13389;DHT22;6764;53.250;10.410;2023-12-28T07:27:49;9.90;99.90
13389;DHT22;6764;53.250;10.410;2023-12-28T07:30:15;9.90;99.90
13389;DHT22;6764;53.250;10.410;2023-12-28T07:32:42;10.00;99.90
13389;DHT22;6764;53.250;10.410;2023-12-28T07:35:08;10.00;99.90
13389;DHT22;6764;53.250;10.410;2023-12-28T07:37:33;10.10;99.90
13389;DHT22;6764;53.250;10.410;2023-12-28T07:40:00;10.10;99.90
13389;DHT22;6764;53.250;10.410;2023-12-28T07:42:25;10.10;99.90
13389;DHT22;6764;53.250;10.410;2023-12-28T07:44:51;10.10;99.90
13389;DHT22;6764;53.250;10.410;2023-12-28T07:47:17;10.10;99.90
13389;DHT22;6764;53.250;10.410;2023-12-28T07:49:42;10.00;99.90
13389;DHT22;6764;53.250;10.410;2023-12-28T07:52:08;10.00;99.90
13389;DHT22;6764;53.250;10.410;2023-12-28T07:54:33;10.00;99.90
13389;DHT22;6764;53.250;10.410;2023-12-28T07:57:00;10.00;99.90
13389;DHT22;6764;53.250;10.410;2023-12-28T07:59:25;9.90;99.90
13389;DHT22;6764;53.250;10.410;2023-12-28T08:01:51;10.00;99.90
13389;DHT22;6764;53.250;10.410;2023-12-28T08:04:16;10.00;99.90
13389;DHT22;6764;53.250;10.410;2023-12-28T08:06:42;10.00;99.90
13389;DHT22;6764;53.250;10.410;2023-12-28T08:09:08;10.00;99.90
13389;DHT22;6764;53.250;10.410;2023-12-28T08:11:34;10.00;99.90
13389;DHT22;6764;53.250;10.410;2023-12-28T08:14:00;10.10;99.90
13389;DHT22;6764;53.250;10.410;2023-12-28T08:16:25;10.20;99.90
13389;DHT22;6764;53.250;10.410;2023-12-28T08:18:51;10.20;99.90
13389;DHT22;6764;53.250;10.410;2023-12-28T08:21:17;10.20;99.90
13389;DHT22;6764;53.250;10.410;2023-12-28T08:23:43;10.20;99.90
13389;DHT22;6764;53.250;10.410;2023-12-28T08:26:09;10.20;99.90
13389;DHT22;6764;53.250;10.410;2023-12-28T08:28:36;10.30;99.90
13389;DHT22;6764;53.250;10.410;2023-12-28T08:31:02;10.30;99.90
13389;DHT22;6764;53.250;10.410;2023-12-28T08:33:27;10.40;99.90
13389;DHT22;6764;53.250;10.410;2023-12-28T08:35:53;10.40;99.90
13389;DHT22;6764;53.250;10.410;2023-12-28T08:38:19;10.40;99.90
13389;DHT22;6764;53.250;10.410;2023-12-28T08:40:45;10.50;99.90
13389;DHT22;6764;53.250;10.410;2023-12-28T08:43:11;10.50;99.90
13389;DHT22;6764;53.250;10.410;2023-12-28T08:45:36;10.60;99.90
13389;DHT22;6764;53.250;10.410;2023-12-28T08:48:03;10.60;99.90
13389;DHT22;6764;53.250;10.410;2023-12-28T08:50:28;10.60;99.90
13389;DHT22;6764;53.250;10.410;2023-12-28T08:52:54;10.60;99.90
13389;DHT22;6764;53.250;10.410;2023-12-28T08:55:20;10.70;99.90
13389;DHT22;6764;53.250;10.410;2023-12-28T08:57:46;10.70;99.90
13389;DHT22;6764;53.250;10.410;2023-12-28T09:00:13;10.70;99.90
13389;DHT22;6764;53.250;10.410;2023-12-28T09:02:41;10.80;99.90
13389;DHT22;6764;53.250;10.410;2023-12-28T09:05:06;10.80;99.90
13389;DHT22;6764;53.250;10.410;2023-12-28T09:07:32;10.80;99.90
13389;DHT22;6764;53.250;10.410;2023-12-28T09:09:58;10.80;99.90
13389;DHT22;6764;53.250;10.410;2023-12-28T09:12:23;10.80;99.90
13389;DHT22;6764;53.250;10.410;2023-12-28T09:14:51;10.80;99.90
13389;DHT22;6764;53.250;10.410;2023-12-28T09:17:21;10.90;99.90
13389;DHT22;6764;53.250;10.410;2023-12-28T09:19:46;11.00;99.90
13389;DHT22;6764;53.250;10.410;2023-12-28T09:22:12;10.90;99.90
13389;DHT22;6764;53.250;10.410;2023-12-28T09:24:38;11.00;99.90
13389;DHT22;6764;53.250;10.410;2023-12-28T09:27:03;11.00;99.90
13389;DHT22;6764;53.250;10.410;2023-12-28T09:29:29;11.00;99.90
13389;DHT22;6764;53.250;10.410;2023-12-28T09:31:55;11.10;99.90
13389;DHT22;6764;53.250;10.410;2023-12-28T09:34:20;11.20;99.90
13389;DHT22;6764;53.250;10.410;2023-12-28T09:36:46;11.20;99.90
13389;DHT22;6764;53.250;10.410;2023-12-28T09:39:11;11.30;99.90
13389;DHT22;6764;53.250;10.410;2023-12-28T09:41:40;11.40;99.90
13389;DHT22;6764;53.250;10.410;2023-12-28T09:44:11;11.40;99.90
13389;DHT22;6764;53.250;10.410;2023-12-28T09:46:38;11.40;99.90
13389;DHT22;6764;53.250;10.410;2023-12-28T09:49:06;11.30;99.90
13389;DHT22;6764;53.250;10.410;2023-12-28T09:51:32;11.30;99.90
13389;DHT22;6764;53.250;10.410;2023-12-28T09:53:58;11.40;99.90
13389;DHT22;6764;53.250;10.410;2023-12-28T09:56:23;11.50;99.90
13389;DHT22;6764;53.250;10.410;2023-12-28T09:58:51;11.60;99.90
13389;DHT22;6764;53.250;10.410;2023-12-28T10:01:20;11.60;99.90
13389;DHT22;6764;53.250;10.410;2023-12-28T10:03:46;11.60;99.90
13389;DHT22;6764;53.250;10.410;2023-12-28T10:06:11;11.70;99.90
13389;DHT22;6764;53.250;10.410;2023-12-28T10:08:45;11.80;99.90
13389;DHT22;6764;53.250;10.410;2023-12-28T10:11:12;11.80;99.90
13389;DHT22;6764;53.250;10.410;2023-12-28T10:13:37;11.80;99.90
13389;DHT22;6764;53.250;10.410;2023-12-28T10:16:03;11.70;99.90
13389;DHT22;6764;53.250;10.410;2023-12-28T10:18:29;11.80;99.90
13389;DHT22;6764;53.250;10.410;2023-12-28T10:20:55;11.80;99.90
13389;DHT22;6764;53.250;10.410;2023-12-28T10:23:21;11.80;99.90
13389;DHT22;6764;53.250;10.410;2023-12-28T10:25:47;11.80;99.90
13389;DHT22;6764;53.250;10.410;2023-12-28T10:28:17;11.70;99.90
13389;DHT22;6764;53.250;10.410;2023-12-28T10:30:45;11.80;99.90
13389;DHT22;6764;53.250;10.410;2023-12-28T10:33:11;11.80;99.90
13389;DHT22;6764;53.250;10.410;2023-12-28T10:35:38;11.90;99.90
13389;DHT22;6764;53.250;10.410;2023-12-28T10:38:04;12.00;99.90
13389;DHT22;6764;53.250;10.410;2023-12-28T10:40:32;11.90;99.90
13389;DHT22;6764;53.250;10.410;2023-12-28T10:42:59;12.00;99.90
13389;DHT22;6764;53.250;10.410;2023-12-28T10:45:28;11.90;99.90
13389;DHT22;6764;53.250;10.410;2023-12-28T10:48:07;12.00;99.90
13389;DHT22;6764;53.250;10.410;2023-12-28T10:50:40;12.00;99.90
13389;DHT22;6764;53.250;10.410;2023-12-28T10:56:25;11.90;99.90
13389;DHT22;6764;53.250;10.410;2023-12-28T11:01:47;11.90;99.90
13389;DHT22;6764;53.250;10.410;2023-12-28T11:06:53;11.80;99.90
13389;DHT22;6764;53.250;10.410;2023-12-28T11:09:22;11.90;99.90
13389;DHT22;6764;53.250;10.410;2023-12-28T11:11:50;11.80;99.90
13389;DHT22;6764;53.250;10.410;2023-12-28T11:14:17;11.80;99.90
13389;DHT22;6764;53.250;10.410;2023-12-28T11:16:43;11.70;99.90
13389;DHT22;6764;53.250;10.410;2023-12-28T11:19:10;11.80;99.90
13389;DHT22;6764;53.250;10.410;2023-12-28T11:21:37;11.80;99.90
13389;DHT22;6764;53.250;10.410;2023-12-28T11:24:04;11.80;99.90
13389;DHT22;6764;53.250;10.410;2023-12-28T11:26:30;11.80;99.90
13389;DHT22;6764;53.250;10.410;2023-12-28T11:29:03;11.80;99.90
13389;DHT22;6764;53.250;10.410;2023-12-28T11:31:32;11.80;99.90
13389;DHT22;6764;53.250;10.410;2023-12-28T11:34:00;11.80;99.90
13389;DHT22;6764;53.250;10.410;2023-12-28T11:38:57;11.70;99.90
13389;DHT22;6764;53.250;10.410;2023-12-28T11:41:25;11.80;99.90
13389;DHT22;6764;53.250;10.410;2023-12-28T11:43:53;11.80;99.90
13389;DHT22;6764;53.250;10.410;2023-12-28T11:46:20;11.80;99.90
13389;DHT22;6764;53.250;10.410;2023-12-28T11:48:46;11.90;99.90
13389;DHT22;6764;53.250;10.410;2023-12-28T11:51:12;12.10;99.90
13389;DHT22;6764;53.250;10.410;2023-12-28T11:53:38;12.20;99.90
13389;DHT22;6764;53.250;10.410;2023-12-28T11:56:05;12.20;99.90
13389;DHT22;6764;53.250;10.410;2023-12-28T11:58:35;12.30;99.90
13389;DHT22;6764;53.250;10.410;2023-12-28T12:01:02;12.20;99.90
13389;DHT22;6764;53.250;10.410;2023-12-28T12:03:27;12.10;99.90
13389;DHT22;6764;53.250;10.410;2023-12-28T12:05:55;12.20;99.90
13389;DHT22;6764;53.250;10.410;2023-12-28T12:08:22;12.30;99.90
13389;DHT22;6764;53.250;10.410;2023-12-28T12:10:48;12.40;99.90
13389;DHT22;6764;53.250;10.410;2023-12-28T12:13:14;12.40;99.90
13389;DHT22;6764;53.250;10.410;2023-12-28T12:15:40;12.40;99.90
13389;DHT22;6764;53.250;10.410;2023-12-28T12:18:06;12.50;99.90
13389;DHT22;6764;53.250;10.410;2023-12-28T12:20:32;12.50;99.90
13389;DHT22;6764;53.250;10.410;2023-12-28T12:23:00;12.40;99.90
13389;DHT22;6764;53.250;10.410;2023-12-28T12:25:26;12.30;99.90
13389;DHT22;6764;53.250;10.410;2023-12-28T12:27:52;12.20;99.90
13389;DHT22;6764;53.250;10.410;2023-12-28T12:30:19;12.20;99.90
13389;DHT22;6764;53.250;10.410;2023-12-28T12:32:44;12.10;99.90
13389;DHT22;6764;53.250;10.410;2023-12-28T12:35:11;12.00;99.90
13389;DHT22;6764;53.250;10.410;2023-12-28T12:37:37;12.00;99.90
13389;DHT22;6764;53.250;10.410;2023-12-28T12:40:04;12.00;99.90
13389;DHT22;6764;53.250;10.410;2023-12-28T12:42:34;12.00;99.90
13389;DHT22;6764;53.250;10.410;2023-12-28T12:45:00;11.90;99.90
13389;DHT22;6764;53.250;10.410;2023-12-28T12:47:32;12.00;99.90
13389;DHT22;6764;53.250;10.410;2023-12-28T12:49:58;11.90;99.90
13389;DHT22;6764;53.250;10.410;2023-12-28T12:52:25;11.90;99.90
13389;DHT22;6764;53.250;10.410;2023-12-28T12:54:56;12.00;99.90
13389;DHT22;6764;53.250;10.410;2023-12-28T12:57:24;12.10;99.90
13389;DHT22;6764;53.250;10.410;2023-12-28T12:59:49;12.00;99.90
13389;DHT22;6764;53.250;10.410;2023-12-28T13:02:16;12.10;99.90
13389;DHT22;6764;53.250;10.410;2023-12-28T13:04:42;12.20;99.90
13389;DHT22;6764;53.250;10.410;2023-12-28T13:07:07;12.20;99.90
13389;DHT22;6764;53.250;10.410;2023-12-28T13:09:34;12.10;99.90
13389;DHT22;6764;53.250;10.410;2023-12-28T13:12:01;12.00;99.90
13389;DHT22;6764;53.250;10.410;2023-12-28T13:14:27;12.10;99.90
13389;DHT22;6764;53.250;10.410;2023-12-28T13:16:53;12.00;99.90
13389;DHT22;6764;53.250;10.410;2023-12-28T13:19:20;12.00;99.90
13389;DHT22;6764;53.250;10.410;2023-12-28T13:21:46;12.00;99.90
13389;DHT22;6764;53.250;10.410;2023-12-28T13:24:11;12.00;99.90
13389;DHT22;6764;53.250;10.410;2023-12-28T13:26:37;12.00;99.90
13389;DHT22;6764;53.250;10.410;2023-12-28T13:29:02;12.00;99.90
13389;DHT22;6764;53.250;10.410;2023-12-28T13:31:28;11.90;99.90
13389;DHT22;6764;53.250;10.410;2023-12-28T13:33:54;12.00;99.90
13389;DHT22;6764;53.250;10.410;2023-12-28T13:36:19;12.10;99.90
13389;DHT22;6764;53.250;10.410;2023-12-28T13:38:45;12.10;99.90
13389;DHT22;6764;53.250;10.410;2023-12-28T13:41:10;12.10;99.90
13389;DHT22;6764;53.250;10.410;2023-12-28T13:43:36;12.00;99.90
13389;DHT22;6764;53.250;10.410;2023-12-28T13:46:02;12.00;99.90
13389;DHT22;6764;53.250;10.410;2023-12-28T13:48:30;12.00;99.90
13389;DHT22;6764;53.250;10.410;2023-12-28T13:50:55;12.10;99.90
13389;DHT22;6764;53.250;10.410;2023-12-28T13:53:21;12.10;99.90
13389;DHT22;6764;53.250;10.410;2023-12-28T13:55:46;12.20;99.90
13389;DHT22;6764;53.250;10.410;2023-12-28T13:58:12;12.20;99.90
13389;DHT22;6764;53.250;10.410;2023-12-28T14:00:39;12.00;99.90
13389;DHT22;6764;53.250;10.410;2023-12-28T14:03:04;12.00;99.90
13389;DHT22;6764;53.250;10.410;2023-12-28T14:05:30;11.90;99.90
13389;DHT22;6764;53.250;10.410;2023-12-28T14:07:57;11.80;99.90
13389;DHT22;6764;53.250;10.410;2023-12-28T14:10:22;11.90;99.90
13389;DHT22;6764;53.250;10.410;2023-12-28T14:12:48;11.90;99.90
13389;DHT22;6764;53.250;10.410;2023-12-28T14:15:14;11.80;99.90
13389;DHT22;6764;53.250;10.410;2023-12-28T14:17:41;11.90;99.90
13389;DHT22;6764;53.250;10.410;2023-12-28T14:20:08;11.90;99.90
13389;DHT22;6764;53.250;10.410;2023-12-28T14:22:37;11.80;99.90
13389;DHT22;6764;53.250;10.410;2023-12-28T14:25:04;11.80;99.90
13389;DHT22;6764;53.250;10.410;2023-12-28T14:27:30;11.70;99.90
13389;DHT22;6764;53.250;10.410;2023-12-28T14:29:56;11.70;99.90
13389;DHT22;6764;53.250;10.410;2023-12-28T14:32:22;11.70;99.90
13389;DHT22;6764;53.250;10.410;2023-12-28T14:34:48;11.80;99.90
13389;DHT22;6764;53.250;10.410;2023-12-28T14:37:14;11.80;99.90
13389;DHT22;6764;53.250;10.410;2023-12-28T14:39:39;11.80;99.90
13389;DHT22;6764;53.250;10.410;2023-12-28T14:42:05;11.70;99.90
13389;DHT22;6764;53.250;10.410;2023-12-28T14:44:31;11.70;99.90
13389;DHT22;6764;53.250;10.410;2023-12-28T14:46:56;11.60;99.90
13389;DHT22;6764;53.250;10.410;2023-12-28T14:49:22;11.60;99.90
13389;DHT22;6764;53.250;10.410;2023-12-28T14:51:48;11.60;99.90
13389;DHT22;6764;53.250;10.410;2023-12-28T14:54:14;11.70;99.90
13389;DHT22;6764;53.250;10.410;2023-12-28T14:56:39;11.80;99.90
13389;DHT22;6764;53.250;10.410;2023-12-28T14:59:05;11.80;99.90
13389;DHT22;6764;53.250;10.410;2023-12-28T15:01:30;11.70;99.90
13389;DHT22;6764;53.250;10.410;2023-12-28T15:03:56;11.80;99.90
13389;DHT22;6764;53.250;10.410;2023-12-28T15:06:21;11.70;99.90
13389;DHT22;6764;53.250;10.410;2023-12-28T15:08:47;11.70;99.90
13389;DHT22;6764;53.250;10.410;2023-12-28T15:11:13;11.70;99.90
13389;DHT22;6764;53.250;10.410;2023-12-28T15:13:39;11.70;99.90
13389;DHT22;6764;53.250;10.410;2023-12-28T15:16:05;11.80;99.90
13389;DHT22;6764;53.250;10.410;2023-12-28T15:18:31;11.80;99.90
13389;DHT22;6764;53.250;10.410;2023-12-28T15:20:57;11.80;99.90
13389;DHT22;6764;53.250;10.410;2023-12-28T15:23:24;11.80;99.90
13389;DHT22;6764;53.250;10.410;2023-12-28T15:25:52;11.90;99.90
13389;DHT22;6764;53.250;10.410;2023-12-28T15:28:18;11.90;99.90
13389;DHT22;6764;53.250;10.410;2023-12-28T15:30:44;11.80;99.90
13389;DHT22;6764;53.250;10.410;2023-12-28T15:33:09;11.90;99.90
13389;DHT22;6764;53.250;10.410;2023-12-28T15:35:37;11.80;99.90
13389;DHT22;6764;53.250;10.410;2023-12-28T15:38:04;11.90;99.90
13389;DHT22;6764;53.250;10.410;2023-12-28T15:40:29;11.80;99.90
13389;DHT22;6764;53.250;10.410;2023-12-28T15:42:55;11.80;99.90
13389;DHT22;6764;53.250;10.410;2023-12-28T15:45:21;11.90;99.90